Time;durP1;ratioP1;P1;durP2;ratioP2;P2;SDS_P1;SDS_P2;PMS_P1;PMS_P2;Temp;Humidity;BMP_temperature;BMP_pressure;BME280_temperature;BME280_humidity;BME280_pressure;Samples;Min_cycle;Max_cycle;Signal;HPM_P1;HPM_P2
2022/08/23 00:00:50;;;;;;;5.45;2.10;;;;;;;17.58;100.00;101120.06;5029513;28;20423;-86
2022/08/23 00:03:23;;;;;;;4.18;2.03;;;;;;;17.57;100.00;101113.75;5021643;28;20434;-87
2022/08/23 00:05:56;;;;;;;5.30;2.00;;;;;;;17.51;100.00;101107.56;5007637;28;20876;-86
2022/08/23 00:08:30;;;;;;;5.30;2.00;;;;;;;17.48;100.00;101112.88;5027254;28;20419;-86
2022/08/23 00:11:05;;;;;;;6.35;2.17;;;;;;;17.42;100.00;101111.41;5026076;28;20426;-87
2022/08/23 00:13:39;;;;;;;5.20;2.00;;;;;;;17.48;100.00;101119.22;5021643;28;20431;-86
2022/08/23 00:16:07;;;;;;;4.43;2.00;;;;;;;17.29;100.00;101097.44;5028664;28;20418;-87
2022/08/23 00:18:40;;;;;;;4.70;2.00;;;;;;;17.42;100.00;101125.97;5012600;28;20427;-87
2022/08/23 00:21:13;;;;;;;4.97;2.10;;;;;;;17.42;100.00;101123.22;5012950;28;20423;-86
2022/08/23 00:23:46;;;;;;;4.35;2.30;;;;;;;17.44;100.00;101112.72;5028130;28;20411;-86
2022/08/23 00:26:21;;;;;;;3.58;1.85;;;;;;;17.37;100.00;101114.28;5025522;28;20798;-86
2022/08/23 00:28:55;;;;;;;5.53;2.30;;;;;;;17.38;100.00;101113.16;5011179;28;20515;-87
2022/08/23 00:31:28;;;;;;;5.07;2.10;;;;;;;17.24;100.00;101111.31;5022571;28;20803;-86
2022/08/23 00:34:01;;;;;;;4.82;2.10;;;;;;;17.27;100.00;101109.88;5020924;28;20813;-87
2022/08/23 00:36:34;;;;;;;4.25;2.03;;;;;;;17.13;100.00;101096.19;5002783;28;20427;-87
2022/08/23 00:39:07;;;;;;;6.03;2.20;;;;;;;17.20;100.00;101106.75;5028385;28;20434;-86
2022/08/23 00:41:44;;;;;;;7.20;2.20;;;;;;;17.12;100.00;101109.16;5008891;28;20744;-86
2022/08/23 00:49:58;;;;;;;5.47;2.30;;;;;;;17.05;100.00;101114.25;5012397;28;20815;-86
2022/08/23 00:52:37;;;;;;;5.35;2.20;;;;;;;16.92;100.00;101115.16;5033948;28;20411;-88
2022/08/23 00:55:11;;;;;;;6.20;2.38;;;;;;;16.96;100.00;101116.16;5009743;28;20415;-86
2022/08/23 00:57:46;;;;;;;3.83;2.08;;;;;;;16.93;100.00;101109.34;4999101;28;20908;-86
2022/08/23 01:00:20;;;;;;;4.93;2.20;;;;;;;16.89;100.00;101107.50;5012059;28;20426;-87
2022/08/23 01:02:50;;;;;;;6.15;2.40;;;;;;;16.84;100.00;101111.97;5029418;28;20423;-87
2022/08/23 01:05:29;;;;;;;5.03;2.38;;;;;;;16.85;100.00;101110.06;5029374;28;20407;-88
2022/08/23 01:08:02;;;;;;;6.43;2.30;;;;;;;16.79;100.00;101111.28;5026102;28;20430;-86
2022/08/23 01:10:35;;;;;;;5.50;2.30;;;;;;;16.78;100.00;101112.44;5010405;28;20434;-87
2022/08/23 01:13:14;;;;;;;5.65;2.35;;;;;;;16.65;100.00;101109.41;5025925;28;20434;-88
2022/08/23 01:15:47;;;;;;;4.67;2.27;;;;;;;16.72;100.00;101108.97;5029113;28;20403;-92
2022/08/23 01:18:25;;;;;;;4.47;2.30;;;;;;;16.71;100.00;101112.03;5028520;28;20477;-87
2022/08/23 01:21:06;;;;;;;4.03;2.20;;;;;;;16.58;100.00;101106.25;5030264;28;20423;-89
2022/08/23 01:23:41;;;;;;;4.73;2.40;;;;;;;16.63;100.00;101117.16;5030485;28;20863;-86
2022/08/23 01:26:17;;;;;;;6.45;2.58;;;;;;;16.77;100.00;101110.81;5028520;28;20411;-87
2022/08/23 01:28:50;;;;;;;5.45;2.30;;;;;;;16.71;100.00;101106.53;5025458;28;20923;-86
2022/08/23 01:31:24;;;;;;;5.35;2.45;;;;;;;16.78;100.00;101115.97;5009688;28;20900;-86
2022/08/23 01:33:59;;;;;;;5.70;2.60;;;;;;;16.75;100.00;101113.88;5034438;28;20441;-87
2022/08/23 01:36:28;;;;;;;3.87;2.17;;;;;;;16.76;100.00;101118.22;5011722;28;20430;-87
2022/08/23 01:39:04;;;;;;;4.78;2.28;;;;;;;16.71;100.00;101123.03;5009170;28;20760;-86
2022/08/23 01:41:37;;;;;;;5.68;2.45;;;;;;;16.71;100.00;101128.50;5023332;28;20437;-86
2022/08/23 01:44:13;;;;;;;4.53;2.25;;;;;;;16.67;100.00;101112.66;5023497;28;20423;-86
2022/08/23 01:46:47;;;;;;;6.87;2.43;;;;;;;16.62;100.00;101121.00;5006021;28;20864;-88
2022/08/23 01:49:20;;;;;;;6.55;2.47;;;;;;;16.64;100.00;101115.19;5008841;28;20419;-87
2022/08/23 01:51:48;;;;;;;5.50;2.63;;;;;;;16.75;100.00;101124.84;5025855;28;20426;-88
2022/08/23 01:54:23;;;;;;;5.87;2.40;;;;;;;16.72;100.00;101128.19;5029203;28;20433;-88
2022/08/23 01:56:51;;;;;;;6.22;2.75;;;;;;;16.67;100.00;101115.41;5030686;28;20454;-86
2022/08/23 01:59:25;;;;;;;5.35;2.60;;;;;;;16.73;100.00;101127.09;5033286;28;20407;-88
2022/08/23 02:01:55;;;;;;;3.72;2.20;;;;;;;16.71;100.00;101125.78;5031910;28;20923;-86
2022/08/23 02:04:29;;;;;;;5.07;2.65;;;;;;;16.68;100.00;101118.94;5033038;28;20450;-86
2022/08/23 02:07:02;;;;;;;6.25;2.58;;;;;;;16.75;100.00;101127.59;5033654;28;20768;-86
2022/08/23 02:09:38;;;;;;;5.53;2.42;;;;;;;16.72;100.00;101119.97;5027219;28;21199;-87
2022/08/23 02:12:12;;;;;;;5.72;2.75;;;;;;;16.72;100.00;101122.72;5030015;28;20938;-86
2022/08/23 02:14:46;;;;;;;4.85;2.67;;;;;;;16.74;100.00;101123.22;5029812;28;20490;-86
2022/08/23 02:17:23;;;;;;;6.60;2.78;;;;;;;16.69;100.00;101120.59;5021118;28;20418;-87
2022/08/23 02:19:56;;;;;;;4.78;2.70;;;;;;;16.72;100.00;101121.91;5032901;28;20426;-87
2022/08/23 02:22:30;;;;;;;6.25;2.63;;;;;;;16.69;100.00;101125.28;5015973;28;20414;-87
2022/08/23 02:25:05;;;;;;;4.40;2.45;;;;;;;16.70;100.00;101119.47;5013585;28;20431;-87
2022/08/23 02:27:39;;;;;;;6.63;2.67;;;;;;;16.69;100.00;101126.09;5034437;28;20413;-87
2022/08/23 02:30:14;;;;;;;5.63;2.93;;;;;;;16.64;100.00;101123.44;5014571;28;20423;-86
2022/08/23 02:32:42;;;;;;;7.07;2.93;;;;;;;16.69;100.00;101131.56;5034760;28;20919;-87
2022/08/23 02:35:15;;;;;;;7.32;3.05;;;;;;;16.67;100.00;101120.09;5020377;28;20427;-87
2022/08/23 02:37:49;;;;;;;6.30;2.95;;;;;;;16.67;100.00;101126.41;5034251;28;20426;-86
2022/08/23 02:40:23;;;;;;;6.95;3.03;;;;;;;16.53;100.00;101125.63;5031457;28;20417;-84
2022/08/23 02:43:00;;;;;;;6.73;2.70;;;;;;;16.58;100.00;101131.00;5039203;28;20418;-86
2022/08/23 02:45:33;;;;;;;6.70;3.05;;;;;;;16.48;100.00;101123.78;5040948;28;20422;-86
2022/08/23 02:48:02;;;;;;;7.38;3.00;;;;;;;16.54;100.00;101134.69;5030486;28;20426;-85
2022/08/23 02:50:43;;;;;;;6.30;3.00;;;;;;;16.59;100.00;101134.56;5015524;28;20415;-86
2022/08/23 02:53:18;;;;;;;5.82;2.90;;;;;;;16.62;100.00;101143.00;5050381;28;20420;-87
2022/08/23 02:55:53;;;;;;;7.07;3.07;;;;;;;16.54;100.00;101140.97;5018361;28;20423;-86
2022/08/23 02:58:26;;;;;;;7.40;3.05;;;;;;;16.53;100.00;101135.78;5016307;28;20403;-85
2022/08/23 03:00:55;;;;;;;5.53;2.80;;;;;;;16.47;100.00;101135.94;5016924;28;20422;-86
2022/08/23 03:03:29;;;;;;;6.25;2.85;;;;;;;16.56;100.00;101133.25;5014240;28;20414;-86
2022/08/23 03:06:03;;;;;;;5.50;3.05;;;;;;;16.53;100.00;101130.31;5028806;28;20768;-88
2022/08/23 03:08:36;;;;;;;8.33;3.30;;;;;;;16.37;100.00;101118.84;5028699;28;20423;-85
2022/08/23 03:11:13;;;;;;;6.63;3.22;;;;;;;16.51;100.00;101127.88;5031927;28;20414;-86
2022/08/23 03:13:49;;;;;;;7.28;3.20;;;;;;;16.38;100.00;101126.78;5023358;28;20410;-85
2022/08/23 03:16:23;;;;;;;7.95;3.30;;;;;;;16.38;100.00;101123.22;5013317;28;20433;-86
2022/08/23 03:18:56;;;;;;;7.68;3.20;;;;;;;16.37;100.00;101130.66;5026210;28;20424;-85
2022/08/23 03:21:24;;;;;;;6.32;3.15;;;;;;;16.37;100.00;101125.16;5021852;28;20432;-86
2022/08/23 03:23:59;;;;;;;5.43;3.00;;;;;;;16.38;100.00;101121.28;5030233;28;20761;-87
2022/08/23 03:26:34;;;;;;;8.73;3.35;;;;;;;16.36;100.00;101128.22;5031667;28;20416;-86
2022/08/23 03:29:03;;;;;;;6.15;3.25;;;;;;;16.19;100.00;101121.41;5016670;28;20426;-87
2022/08/23 03:31:38;;;;;;;5.90;3.05;;;;;;;16.25;100.00;101138.59;5015658;28;20411;-87
2022/08/23 03:34:13;;;;;;;5.47;3.03;;;;;;;16.22;100.00;101129.03;5016448;28;20434;-86
2022/08/23 03:36:46;;;;;;;5.60;3.03;;;;;;;16.20;100.00;101144.19;5033062;28;20430;-87
2022/08/23 03:39:19;;;;;;;6.53;3.15;;;;;;;16.22;100.00;101145.50;5027786;28;20783;-87
2022/08/23 03:41:54;;;;;;;6.60;3.10;;;;;;;16.27;100.00;101141.88;5027958;28;20418;-88
2022/08/23 03:44:31;;;;;;;5.33;2.77;;;;;;;16.28;100.00;101154.44;5009101;28;20407;-87
2022/08/23 03:47:05;;;;;;;6.18;2.80;;;;;;;16.27;100.00;101155.59;5030903;28;20430;-85
2022/08/23 03:49:35;;;;;;;7.43;2.90;;;;;;;16.26;100.00;101146.53;5015012;28;20430;-86
2022/08/23 03:52:10;;;;;;;6.65;2.97;;;;;;;16.23;100.00;101152.63;5031022;28;20422;-85
2022/08/23 03:54:43;;;;;;;6.85;3.20;;;;;;;16.23;100.00;101152.63;5030856;28;20424;-86
2022/08/23 03:57:18;;;;;;;5.05;2.83;;;;;;;16.19;100.00;101165.34;5013156;28;20807;-86
2022/08/23 03:59:47;;;;;;;7.97;3.00;;;;;;;16.14;100.00;101160.78;5014392;28;20879;-87
2022/08/23 04:02:20;;;;;;;5.07;2.83;;;;;;;16.05;100.00;101157.13;5012694;28;20817;-86
2022/08/23 04:04:54;;;;;;;5.10;2.90;;;;;;;16.01;100.00;101160.78;5014747;28;20419;-87
2022/08/23 04:07:39;;;;;;;6.82;2.92;;;;;;;16.01;100.00;101167.09;5014166;28;20415;-88
2022/08/23 04:10:14;;;;;;;6.47;2.93;;;;;;;16.02;100.00;101179.69;5031258;28;20901;-87
2022/08/23 04:12:53;;;;;;;5.35;2.80;;;;;;;16.00;100.00;101172.88;5030849;28;20414;-87
2022/08/23 04:15:26;;;;;;;8.75;3.22;;;;;;;15.87;100.00;101175.31;5028277;28;20415;-86
2022/08/23 04:18:01;;;;;;;5.40;3.22;;;;;;;15.85;100.00;101180.28;5026011;28;20403;-86
2022/08/23 04:20:34;;;;;;;6.77;3.30;;;;;;;15.72;100.00;101170.88;5031093;28;20423;-86
2022/08/23 04:23:07;;;;;;;5.53;3.10;;;;;;;15.85;100.00;101182.22;5010989;28;20430;-86
2022/08/23 04:25:50;;;;;;;6.95;3.13;;;;;;;15.83;100.00;101171.56;5028586;28;20410;-87
2022/08/23 04:28:25;;;;;;;6.90;3.23;;;;;;;15.83;100.00;101178.97;5027761;28;20981;-87
2022/08/23 04:30:59;;;;;;;6.80;3.45;;;;;;;15.87;100.00;101185.47;5033397;28;20427;-86
2022/08/23 04:33:34;;;;;;;5.70;3.38;;;;;;;15.85;100.00;101182.22;5029601;28;20419;-87
2022/08/23 04:36:07;;;;;;;6.47;3.20;;;;;;;15.86;100.00;101192.09;5031204;28;20437;-87
2022/08/23 04:38:41;;;;;;;7.53;3.30;;;;;;;15.83;100.00;101188.00;5013011;28;20444;-87
2022/08/23 04:44:05;;;;;;;6.70;3.55;;;;;;;15.91;100.00;101189.22;5008828;28;20429;-87
2022/08/23 04:46:38;;;;;;;5.95;3.15;;;;;;;15.91;100.00;101192.81;5028797;28;20419;-86
2022/08/23 04:49:07;;;;;;;4.95;3.17;;;;;;;16.04;100.00;101204.09;5018512;28;20451;-86
2022/08/23 04:51:40;;;;;;;6.07;3.40;;;;;;;16.05;100.00;101198.31;5041882;28;20439;-86
2022/08/23 04:54:13;;;;;;;7.97;3.33;;;;;;;16.06;100.00;101201.84;5028272;28;20430;-86
2022/08/23 04:56:49;;;;;;;7.65;3.38;;;;;;;16.13;100.00;101194.84;5026485;28;20423;-86
2022/08/23 04:59:24;;;;;;;6.65;3.25;;;;;;;16.10;100.00;101205.63;5026469;28;20434;-86
2022/08/23 05:01:58;;;;;;;6.10;3.17;;;;;;;16.05;100.00;101201.06;5023302;28;20423;-86
2022/08/23 05:04:31;;;;;;;5.85;3.40;;;;;;;16.20;100.00;101197.19;5023860;28;20938;-87
2022/08/23 05:07:05;;;;;;;8.48;3.42;;;;;;;16.10;100.00;101202.88;5019441;28;20861;-86
2022/08/23 05:09:38;;;;;;;7.47;3.53;;;;;;;16.06;100.00;101205.44;5008964;28;20427;-86
2022/08/23 05:12:07;;;;;;;8.32;3.60;;;;;;;16.12;100.00;101197.91;5025312;28;20427;-85
2022/08/23 05:14:36;;;;;;;7.15;3.70;;;;;;;17.09;100.00;101206.00;5003063;28;20447;-87
2022/08/23 05:17:10;;;;;;;5.80;3.17;;;;;;;18.30;100.00;101193.25;5020379;28;20422;-85
2022/08/23 05:19:43;;;;;;;5.85;3.20;;;;;;;18.77;100.00;101194.66;5010487;28;20441;-85
2022/08/23 05:22:11;;;;;;;6.28;2.92;;;;;;;18.40;100.00;101199.59;5008122;28;20429;-86
2022/08/23 05:25:09;;;;;;;5.77;3.07;;;;;;;17.96;100.00;101200.25;5026399;28;20784;-86
2022/08/23 05:27:38;;;;;;;7.17;3.33;;;;;;;17.41;100.00;101212.38;5019864;28;20407;-86
2022/08/23 05:30:10;;;;;;;5.93;3.03;;;;;;;17.17;100.00;101219.00;5025972;28;20426;-86
2022/08/23 05:32:43;;;;;;;6.53;3.10;;;;;;;17.00;100.00;101214.19;5030557;28;20415;-85
2022/08/23 05:35:17;;;;;;;5.60;2.97;;;;;;;17.06;100.00;101216.81;5010602;28;20423;-85
2022/08/23 05:37:50;;;;;;;6.70;3.25;;;;;;;16.86;100.00;101218.06;5019343;28;20427;-86
2022/08/23 05:40:19;;;;;;;5.47;2.88;;;;;;;17.17;100.00;101224.50;5011349;28;20431;-86
2022/08/23 05:43:02;;;;;;;7.55;3.05;;;;;;;17.17;100.00;101224.50;5023152;28;20434;-85
2022/08/23 05:45:36;;;;;;;4.97;2.70;;;;;;;17.01;100.00;101228.72;5005763;28;20502;-89
2022/08/23 05:48:05;;;;;;;5.80;3.20;;;;;;;16.92;100.00;101225.91;5026217;28;20465;-85
2022/08/23 05:50:45;;;;;;;6.43;3.13;;;;;;;17.14;100.00;101227.09;5012161;28;20438;-87
2022/08/23 05:53:18;;;;;;;5.40;3.00;;;;;;;17.19;100.00;101234.38;5024619;28;20431;-85
2022/08/23 05:55:52;;;;;;;8.98;3.55;;;;;;;17.07;100.00;101235.75;5005059;28;20452;-86
2022/08/23 05:58:25;;;;;;;5.82;3.20;;;;;;;17.03;100.00;101231.16;5007442;28;20438;-88
2022/08/23 06:00:54;;;;;;;5.45;3.25;;;;;;;17.04;100.00;101236.38;5001061;28;20428;-88
2022/08/23 06:03:28;;;;;;;7.15;3.30;;;;;;;17.10;100.00;101235.13;5011455;28;20445;-87
2022/08/23 06:06:02;;;;;;;6.50;3.28;;;;;;;17.39;100.00;101244.91;5023133;28;20422;-85
2022/08/23 06:08:38;;;;;;;6.55;3.15;;;;;;;17.40;100.00;101249.28;5007410;28;20437;-86
2022/08/23 06:11:14;;;;;;;5.90;3.08;;;;;;;17.38;100.00;101248.78;5012293;28;20787;-86
2022/08/23 06:13:46;;;;;;;4.78;2.80;;;;;;;17.50;100.00;101245.47;5022205;28;20435;-85
2022/08/23 06:16:24;;;;;;;5.17;2.80;;;;;;;17.57;100.00;101247.78;5024512;28;20434;-88
2022/08/23 06:19:01;;;;;;;6.35;2.88;;;;;;;17.65;100.00;101253.34;5004938;28;20431;-88
2022/08/23 06:21:48;;;;;;;6.35;2.78;;;;;;;17.76;100.00;101250.31;5019211;28;20426;-82
2022/08/23 06:24:25;;;;;;;6.85;2.83;;;;;;;17.79;100.00;101230.44;5018266;28;20431;-89
2022/08/23 06:27:03;;;;;;;5.72;2.60;;;;;;;17.96;100.00;101241.56;5010929;28;20438;-89
2022/08/23 06:29:31;;;;;;;5.57;2.80;;;;;;;17.98;100.00;101249.50;5012281;28;20427;-88
2022/08/23 06:32:24;;;;;;;5.93;3.00;;;;;;;18.13;100.00;101251.03;5029846;28;20778;-87
2022/08/23 06:35:18;;;;;;;5.25;2.67;;;;;;;18.17;100.00;101238.25;5001610;28;20886;-87
2022/08/23 06:37:56;;;;;;;5.68;2.60;;;;;;;18.32;100.00;101242.53;4994992;28;20423;-87
2022/08/23 06:40:48;;;;;;;4.75;2.60;;;;;;;18.27;100.00;101232.47;5005932;28;20429;-88
2022/08/23 06:43:24;;;;;;;6.07;2.50;;;;;;;18.62;100.00;101238.06;5008342;28;20431;-88
2022/08/23 06:46:10;;;;;;;4.17;2.20;;;;;;;18.91;100.00;101244.16;4985317;28;20912;-87
2022/08/23 06:48:41;;;;;;;5.97;2.53;;;;;;;18.80;100.00;101249.13;4989718;28;20423;-88
2022/08/23 06:51:11;;;;;;;5.03;2.30;;;;;;;18.76;100.00;101243.44;5000765;28;20983;-88
2022/08/23 06:53:55;;;;;;;5.78;2.35;;;;;;;18.84;100.00;101248.16;4990065;28;20414;-88
2022/08/23 06:56:46;;;;;;;3.47;2.15;;;;;;;18.90;100.00;101237.81;4984586;28;20423;-86
2022/08/23 06:59:28;;;;;;;3.85;2.13;;;;;;;19.22;100.00;101245.94;5005997;28;20426;-88
2022/08/23 07:02:03;;;;;;;4.18;2.13;;;;;;;19.31;100.00;101252.28;5008825;28;20417;-90
2022/08/23 07:04:57;;;;;;;3.95;2.35;;;;;;;19.41;100.00;101249.19;5008220;28;20723;-86
2022/08/23 07:07:50;;;;;;;8.73;4.13;;;;;;;19.44;100.00;101256.00;4988344;28;20433;-88
2022/08/23 07:10:19;;;;;;;4.60;2.00;;;;;;;19.53;100.00;101254.84;5004126;28;20437;-88
2022/08/23 07:12:48;;;;;;;4.67;2.00;;;;;;;19.76;100.00;101249.16;5001249;28;20429;-89
2022/08/23 07:15:20;;;;;;;4.47;2.13;;;;;;;19.54;100.00;101225.28;4988854;28;20854;-90
2022/08/23 07:17:53;;;;;;;4.83;2.20;;;;;;;19.66;100.00;101255.78;5010230;28;20443;-87
2022/08/23 07:20:28;;;;;;;5.00;2.00;;;;;;;19.79;100.00;101250.41;4981142;28;20444;-87
2022/08/23 07:23:02;;;;;;;5.63;2.30;;;;;;;19.77;100.00;101247.97;4987040;28;20728;-87
2022/08/23 07:25:31;;;;;;;4.93;1.90;;;;;;;19.73;100.00;101235.97;4988922;28;20985;-89
2022/08/23 07:28:07;;;;;;;4.07;1.92;;;;;;;20.26;100.00;101252.41;4999327;28;20428;-88
2022/08/23 07:30:42;;;;;;;4.03;2.03;;;;;;;20.27;100.00;101246.53;5010122;28;20448;-88
2022/08/23 07:33:10;;;;;;;4.18;2.13;;;;;;;20.25;100.00;101246.06;4995146;28;20954;-90
2022/08/23 07:36:04;;;;;;;3.90;1.98;;;;;;;20.31;100.00;101246.69;5024327;28;20407;-88
2022/08/23 07:38:37;;;;;;;3.30;1.90;;;;;;;20.38;100.00;101252.50;4986544;28;20935;-88
2022/08/23 07:41:06;;;;;;;4.22;1.85;;;;;;;20.65;100.00;101254.00;4992302;28;20964;-88
2022/08/23 07:43:40;;;;;;;3.83;1.77;;;;;;;20.52;100.00;101255.88;4997434;28;20442;-86
2022/08/23 07:46:13;;;;;;;4.67;2.00;;;;;;;20.49;100.00;101250.97;4984794;28;20435;-87
2022/08/23 07:48:47;;;;;;;4.47;1.80;;;;;;;20.62;100.00;101226.19;4991468;28;20431;-87
2022/08/23 07:51:22;;;;;;;4.00;1.80;;;;;;;20.68;100.00;101244.25;4985450;28;20648;-86
2022/08/23 07:53:50;;;;;;;2.97;1.70;;;;;;;20.75;100.00;101249.25;5016594;28;20421;-86
2022/08/23 07:56:24;;;;;;;3.00;1.80;;;;;;;20.71;100.00;101249.94;5005172;28;20430;-87
2022/08/23 07:59:05;;;;;;;3.88;1.80;;;;;;;20.84;100.00;101261.03;4999187;28;21046;-87
2022/08/23 08:01:53;;;;;;;3.92;1.75;;;;;;;20.90;100.00;101256.94;5019496;28;20439;-87
2022/08/23 08:04:27;;;;;;;3.25;1.80;;;;;;;21.12;100.00;101253.03;5004991;28;20422;-88
2022/08/23 08:06:59;;;;;;;5.25;1.95;;;;;;;21.06;100.00;101259.94;4999327;28;20430;-89
2022/08/23 08:09:35;;;;;;;8.18;2.33;;;;;;;21.31;100.00;101263.63;4977452;28;20423;-89
2022/08/23 08:12:09;;;;;;;6.72;1.95;;;;;;;21.48;100.00;101268.19;4986232;28;20431;-88
2022/08/23 08:14:43;;;;;;;3.97;2.13;;;;;;;21.38;100.00;101255.59;4982954;28;20427;-88
2022/08/23 08:17:19;;;;;;;4.20;1.90;;;;;;;21.24;100.00;101264.19;4984723;28;20974;-88
2022/08/23 08:20:08;;;;;;;4.93;1.80;;;;;;;21.27;100.00;101265.47;5003470;28;20452;-86
2022/08/23 08:22:57;;;;;;;3.63;1.70;;;;;;;21.14;100.00;101252.69;5010018;28;20430;-87
2022/08/23 08:25:44;;;;;;;2.70;1.55;;;;;;;21.37;100.00;101267.00;5001298;28;21117;-90
2022/08/23 08:28:19;;;;;;;3.10;1.60;;;;;;;21.38;100.00;101252.03;4979692;28;20825;-86
2022/08/23 08:30:48;;;;;;;4.13;1.88;;;;;;;21.45;100.00;101243.97;4987049;28;20443;-87
2022/08/23 08:33:22;;;;;;;3.15;1.70;;;;;;;21.61;100.00;101263.53;4981497;28;20430;-86
2022/08/23 08:35:55;;;;;;;4.72;1.90;;;;;;;21.45;100.00;101259.75;5001004;28;20423;-85
2022/08/23 08:38:30;;;;;;;4.07;1.90;;;;;;;21.52;100.00;101263.63;4997116;28;20447;-86
2022/08/23 08:41:15;;;;;;;4.40;1.70;;;;;;;21.65;100.00;101256.16;4992523;28;20425;-86
2022/08/23 08:43:58;;;;;;;3.47;1.75;;;;;;;21.59;100.00;101245.66;4985929;28;20411;-86
2022/08/23 08:46:41;;;;;;;4.90;2.10;;;;;;;21.81;100.00;101253.56;5003135;28;20425;-86
2022/08/23 08:49:20;;;;;;;3.43;1.77;;;;;;;21.98;100.00;101258.09;4982908;28;20698;-85
2022/08/23 08:51:53;;;;;;;4.00;1.70;;;;;;;22.06;100.00;101257.19;5002203;28;20438;-87
2022/08/23 08:54:31;;;;;;;3.00;1.60;;;;;;;22.00;100.00;101261.34;4984963;28;20435;-87
2022/08/23 08:57:07;;;;;;;4.05;1.60;;;;;;;22.20;100.00;101262.41;4986134;28;20552;-86
2022/08/23 08:59:52;;;;;;;3.28;1.50;;;;;;;22.09;100.00;101261.22;4983912;28;21022;-88
2022/08/23 09:02:30;;;;;;;2.10;1.30;;;;;;;22.06;100.00;101271.03;4990533;28;20435;-87
2022/08/23 09:05:11;;;;;;;3.60;1.50;;;;;;;22.14;100.00;101266.56;4988557;28;20419;-88
2022/08/23 09:07:56;;;;;;;3.30;1.57;;;;;;;22.16;100.00;101264.22;5001715;28;20430;-86
2022/08/23 09:10:51;;;;;;;3.80;1.42;;;;;;;22.28;100.00;101274.53;4999561;28;21091;-87
2022/08/23 09:13:46;;;;;;;4.30;1.40;;;;;;;22.21;100.00;101268.75;5009970;28;20434;-86
2022/08/23 09:16:31;;;;;;;3.22;1.40;;;;;;;22.45;100.00;101279.06;4987140;28;20783;-87
2022/08/23 09:19:05;;;;;;;2.78;1.58;;;;;;;22.37;100.00;101269.72;4995157;28;21118;-87
2022/08/23 09:21:45;;;;;;;4.07;1.50;;;;;;;22.42;100.00;101277.00;4991975;28;21167;-86
2022/08/23 09:24:18;;;;;;;3.00;1.48;;;;;;;22.53;100.00;101275.38;4987776;28;20434;-87
2022/08/23 09:27:16;;;;;;;3.03;1.27;;;;;;;22.44;100.00;101248.91;5007610;28;20950;-88
2022/08/23 09:29:55;;;;;;;10.40;6.28;;;;;;;22.68;100.00;101273.88;4992695;28;20944;-85
2022/08/23 09:32:33;;;;;;;11.40;7.35;;;;;;;22.74;97.12;101280.00;4999074;28;20435;-86
2022/08/23 09:35:16;;;;;;;5.60;1.50;;;;;;;22.58;100.00;101283.47;5004358;28;20430;-86
2022/08/23 09:37:58;;;;;;;3.20;1.40;;;;;;;22.84;92.08;101271.19;4995019;28;21989;-88
2022/08/23 09:40:32;;;;;;;3.50;1.60;;;;;;;22.83;100.00;101279.84;4998835;28;20437;-87
2022/08/23 09:43:09;;;;;;;2.50;1.30;;;;;;;22.90;100.00;101269.00;4998948;28;20428;-86
2022/08/23 09:45:56;;;;;;;4.32;1.60;;;;;;;22.87;100.00;101273.28;4999318;28;20421;-88
2022/08/23 09:48:39;;;;;;;1.92;1.20;;;;;;;23.21;91.49;101262.00;5012490;28;20439;-87
2022/08/23 09:51:18;;;;;;;2.67;1.35;;;;;;;23.19;100.00;101256.78;4998247;28;20435;-85
2022/08/23 09:54:05;;;;;;;5.37;2.53;;;;;;;23.05;100.00;101257.16;5009826;28;20816;-85
2022/08/23 09:56:41;;;;;;;5.03;2.20;;;;;;;23.08;100.00;101252.88;4992735;28;21906;-88
2022/08/23 09:59:34;;;;;;;3.63;1.40;;;;;;;23.20;97.21;101243.72;4991699;28;21374;-86
2022/08/23 10:02:23;;;;;;;2.38;1.30;;;;;;;23.20;100.00;101238.97;4999528;28;20521;-84
2022/08/23 10:05:04;;;;;;;2.97;1.30;;;;;;;23.16;100.00;101221.41;4977815;28;20435;-86
2022/08/23 10:07:38;;;;;;;3.05;1.33;;;;;;;23.32;97.14;101229.78;4976524;28;20442;-86
2022/08/23 10:10:17;;;;;;;1.90;1.20;;;;;;;23.26;94.62;101243.09;4998894;28;20469;-87
2022/08/23 10:12:53;;;;;;;2.83;1.20;;;;;;;23.25;96.91;101229.59;4981894;28;21133;-85
2022/08/23 10:15:40;;;;;;;2.65;1.20;;;;;;;23.46;95.08;101229.38;5002424;28;20466;-87
2022/08/23 10:18:22;;;;;;;4.13;1.30;;;;;;;23.42;92.05;101232.06;4986782;28;20855;-87
2022/08/23 10:21:04;;;;;;;3.42;1.27;;;;;;;23.34;91.31;101233.03;5005618;28;20876;-87
2022/08/23 10:23:43;;;;;;;2.22;1.20;;;;;;;23.37;97.29;101235.09;4984907;28;20439;-86
2022/08/23 10:26:24;;;;;;;1.92;1.02;;;;;;;23.52;94.75;101239.06;4990336;28;20432;-85
2022/08/23 10:32:19;;;;;;;2.20;1.13;;;;;;;23.70;84.96;101239.53;4992545;28;20831;-88
2022/08/23 10:35:14;;;;;;;2.53;1.10;;;;;;;23.80;87.98;101237.41;4988223;28;20956;-86
2022/08/23 10:37:58;;;;;;;2.55;1.23;;;;;;;23.88;85.98;101228.94;5003437;28;20423;-85
2022/08/23 10:40:44;;;;;;;2.40;1.20;;;;;;;24.09;71.13;101231.44;5006486;28;20957;-88
2022/08/23 10:43:19;;;;;;;4.03;1.70;;;;;;;24.16;81.50;101228.03;4994903;28;20472;-87
2022/08/23 10:45:57;;;;;;;5.22;1.98;;;;;;;24.08;78.87;101220.69;4981923;28;20726;-89
2022/08/23 10:48:36;;;;;;;5.15;1.40;;;;;;;24.20;86.31;101214.22;4986917;28;20813;-87
2022/08/23 10:51:15;;;;;;;3.78;1.23;;;;;;;24.26;84.56;101221.94;5003180;28;20442;-86
2022/08/23 10:53:55;;;;;;;1.95;1.02;;;;;;;24.35;78.98;101224.50;5007514;28;21468;-85
2022/08/23 10:56:30;;;;;;;4.00;1.27;;;;;;;24.21;75.71;101219.41;4996547;28;20433;-85
2022/08/23 10:59:09;;;;;;;3.67;1.15;;;;;;;24.27;79.69;101214.38;5002367;28;20437;-87
2022/08/23 11:01:50;;;;;;;4.03;1.27;;;;;;;24.25;71.45;101217.53;4998476;28;20428;-88
2022/08/23 11:04:32;;;;;;;2.47;1.17;;;;;;;24.35;80.44;101218.94;5002336;28;20724;-87
2022/08/23 11:07:19;;;;;;;3.55;1.20;;;;;;;24.22;60.30;101217.44;4992049;28;20880;-85
2022/08/23 11:09:58;;;;;;;3.50;1.30;;;;;;;24.34;78.12;101214.53;4990865;28;20434;-88
2022/08/23 11:12:34;;;;;;;3.50;1.10;;;;;;;24.36;67.42;101228.09;4992197;28;20444;-88
2022/08/23 11:15:19;;;;;;;2.05;1.10;;;;;;;24.40;70.18;101215.06;4984475;28;20812;-86
2022/08/23 11:18:00;;;;;;;3.75;1.20;;;;;;;24.32;72.25;101199.38;4984123;28;20421;-87
2022/08/23 11:21:07;;;;;;;4.28;1.80;;;;;;;24.71;62.53;101208.66;5010158;28;20417;-87
2022/08/23 11:24:49;;;;;;;3.50;1.30;;;;;;;24.63;71.86;101208.88;4990704;28;20431;-85
2022/08/23 11:27:36;;;;;;;3.47;1.30;;;;;;;24.63;57.85;101209.66;5019012;28;20418;-87
2022/08/23 11:30:44;;;;;;;3.65;1.15;;;;;;;24.63;72.06;101206.09;5004265;28;20946;-87
2022/08/23 11:33:27;;;;;;;4.10;1.02;;;;;;;24.74;69.30;101201.56;5022209;28;20445;-86
2022/08/23 11:36:20;;;;;;;2.90;1.13;;;;;;;24.94;53.49;101200.41;5002837;28;22481;-88
2022/08/23 11:39:08;;;;;;;5.60;1.20;;;;;;;24.89;53.57;101192.34;5020398;28;20418;-87
2022/08/23 11:42:05;;;;;;;2.88;1.10;;;;;;;24.88;58.15;101201.84;5020882;28;20446;-87
2022/08/23 11:44:47;;;;;;;2.00;1.10;;;;;;;24.96;51.40;101205.59;4992185;28;21786;-88
2022/08/23 11:47:28;;;;;;;2.35;1.20;;;;;;;25.01;48.19;101193.34;5004422;28;20444;-86
2022/08/23 11:50:20;;;;;;;2.63;1.30;;;;;;;24.99;63.41;101196.50;5021035;28;20430;-86
2022/08/23 11:53:09;;;;;;;4.25;1.40;;;;;;;25.07;52.96;101184.34;4995706;28;20642;-86
2022/08/23 11:56:02;;;;;;;3.55;1.15;;;;;;;25.07;67.05;101198.28;5009558;28;20441;-89
2022/08/23 11:59:09;;;;;;;4.68;1.40;;;;;;;25.12;67.93;101202.72;5007214;28;20779;-86
2022/08/23 12:01:40;;;;;;;2.60;1.37;;;;;;;25.21;69.64;101210.88;4984601;28;21288;-86
2022/08/23 12:04:31;;;;;;;3.65;1.25;;;;;;;25.28;65.68;101199.88;4989533;28;20425;-86
2022/08/23 12:07:11;;;;;;;5.20;1.20;;;;;;;25.46;55.13;101206.59;5003804;28;20440;-85
2022/08/23 12:09:54;;;;;;;3.70;1.30;;;;;;;25.35;50.51;101199.22;4992455;28;21407;-87
2022/08/23 12:12:31;;;;;;;2.88;1.20;;;;;;;25.51;60.62;101205.50;5005438;28;20941;-85
2022/08/23 12:15:09;;;;;;;5.57;1.30;;;;;;;25.56;66.58;101209.97;5000376;28;20433;-86
2022/08/23 12:18:13;;;;;;;2.57;1.30;;;;;;;25.53;67.96;101203.16;5003983;28;20779;-86